createdAt,value
2023-05-16T00:00:15.063Z,81.30
2023-05-16T00:02:42.110Z,81.08
2023-05-16T00:05:10.597Z,81.24
2023-05-16T00:07:37.099Z,81.43
2023-05-16T00:10:03.635Z,81.40
2023-05-16T00:12:30.188Z,81.17
2023-05-16T00:14:57.000Z,81.15
2023-05-16T00:17:23.818Z,81.16
2023-05-16T00:19:53.996Z,80.51
2023-05-16T00:22:21.058Z,81.09
2023-05-16T00:24:47.454Z,81.58
2023-05-16T00:27:13.894Z,81.25
2023-05-16T00:29:40.431Z,81.12
2023-05-16T00:32:08.748Z,81.32
2023-05-16T00:34:35.766Z,81.25
2023-05-16T00:37:02.379Z,81.22
2023-05-16T00:39:29.100Z,81.59
2023-05-16T00:41:57.525Z,81.25
2023-05-16T00:44:24.434Z,81.31
2023-05-16T00:46:50.960Z,81.60
2023-05-16T00:49:17.529Z,81.69
2023-05-16T00:51:44.278Z,81.73
2023-05-16T00:54:10.742Z,82.02
2023-05-16T00:56:37.265Z,81.95
2023-05-16T00:59:04.032Z,81.91
2023-05-16T01:01:30.575Z,81.81
2023-05-16T01:03:57.162Z,81.83
2023-05-16T01:06:23.765Z,81.77
2023-05-16T01:08:50.851Z,81.20
2023-05-16T01:11:36.482Z,81.39
2023-05-16T01:14:12.002Z,80.89
2023-05-16T01:16:58.552Z,81.46
2023-05-16T01:19:38.331Z,81.63
2023-05-16T01:22:32.009Z,81.55
2023-05-16T01:25:26.789Z,81.63
2023-05-16T01:27:53.792Z,81.77
2023-05-16T01:30:22.302Z,81.89
2023-05-16T01:32:48.902Z,81.55
2023-05-16T01:35:17.060Z,81.48
2023-05-16T01:37:50.282Z,81.75
2023-05-16T01:40:26.846Z,81.85
2023-05-16T01:42:55.469Z,81.65
2023-05-16T01:45:29.719Z,81.76
2023-05-16T01:48:05.537Z,81.76
2023-05-16T01:50:34.604Z,81.85
2023-05-16T01:53:06.829Z,81.68
2023-05-16T01:55:44.392Z,82.05
2023-05-16T01:58:11.454Z,81.88
2023-05-16T02:00:38.002Z,81.68
2023-05-16T02:03:04.720Z,81.59
2023-05-16T02:05:31.725Z,81.47
2023-05-16T02:07:59.507Z,81.41
2023-05-16T02:10:26.958Z,81.52
2023-05-16T02:12:53.497Z,81.94
2023-05-16T02:15:20.014Z,81.44
2023-05-16T02:17:47.218Z,81.84
2023-05-16T02:20:15.592Z,81.76
2023-05-16T02:22:47.244Z,81.71
2023-05-16T02:25:15.257Z,81.46
2023-05-16T02:27:43.069Z,81.77
2023-05-16T02:30:11.838Z,81.56
2023-05-16T02:32:39.669Z,81.59
2023-05-16T02:35:06.836Z,81.72
2023-05-16T02:37:33.493Z,81.69
2023-05-16T02:40:00.025Z,82.13
2023-05-16T02:42:27.706Z,81.87
2023-05-16T02:44:54.149Z,81.74
2023-05-16T02:47:20.571Z,82.17
2023-05-16T02:49:47.057Z,81.91
2023-05-16T02:52:13.492Z,81.86
2023-05-16T02:54:40.019Z,81.57
2023-05-16T02:57:06.432Z,81.85
2023-05-16T02:59:32.825Z,82.06
2023-05-16T03:01:59.712Z,81.91
2023-05-16T03:04:26.231Z,82.34
2023-05-16T03:06:53.865Z,82.37
2023-05-16T03:09:20.297Z,82.82
2023-05-16T03:11:46.956Z,82.71
2023-05-16T03:14:13.420Z,82.80
2023-05-16T03:16:41.576Z,82.89
2023-05-16T03:19:08.055Z,82.44
2023-05-16T03:21:34.509Z,82.70
2023-05-16T03:24:02.924Z,82.36
2023-05-16T03:26:29.428Z,82.46
2023-05-16T03:28:56.115Z,82.66
2023-05-16T03:31:22.645Z,83.20
2023-05-16T03:33:49.232Z,83.20
2023-05-16T03:36:15.693Z,83.14
2023-05-16T03:38:42.134Z,83.44
2023-05-16T03:41:08.659Z,83.90
2023-05-16T03:43:35.116Z,84.06
2023-05-16T03:46:02.377Z,84.15
2023-05-16T03:48:28.853Z,84.32
2023-05-16T03:50:55.567Z,84.58
2023-05-16T03:53:22.049Z,84.52
2023-05-16T03:55:48.962Z,84.80
2023-05-16T03:58:16.485Z,85.00
2023-05-16T04:00:43.151Z,85.06
2023-05-16T04:03:09.743Z,85.14
2023-05-16T04:05:36.449Z,85.35
2023-05-16T04:08:02.944Z,85.52
2023-05-16T04:10:29.414Z,85.10
2023-05-16T04:12:55.951Z,84.47
2023-05-16T04:15:22.423Z,84.55
2023-05-16T04:17:48.965Z,84.51
2023-05-16T04:20:15.727Z,83.95
2023-05-16T04:22:42.476Z,83.76
2023-05-16T04:25:09.380Z,83.38
2023-05-16T04:27:36.055Z,83.32
2023-05-16T04:30:02.558Z,83.38
2023-05-16T04:32:29.075Z,83.93
2023-05-16T04:34:55.639Z,83.35
2023-05-16T04:37:22.346Z,83.29
2023-05-16T04:39:48.875Z,82.99
2023-05-16T04:42:16.300Z,82.91
2023-05-16T04:44:43.945Z,82.97
2023-05-16T04:47:10.350Z,82.30
2023-05-16T04:49:36.782Z,82.56
2023-05-16T04:52:03.317Z,82.17
2023-05-16T04:54:29.750Z,81.61
2023-05-16T04:56:57.283Z,81.37
2023-05-16T04:59:23.766Z,81.64
2023-05-16T05:01:50.353Z,81.36
2023-05-16T05:04:17.676Z,81.61
2023-05-16T05:06:44.107Z,81.56
2023-05-16T05:09:10.944Z,81.58
2023-05-16T05:11:37.380Z,81.34
2023-05-16T05:14:04.054Z,81.00
2023-05-16T05:16:30.506Z,80.34
2023-05-16T05:18:57.050Z,80.64
2023-05-16T05:21:25.284Z,80.67
2023-05-16T05:23:51.811Z,80.84
2023-05-16T05:26:18.376Z,81.02
2023-05-16T05:28:53.831Z,80.76
2023-05-16T05:31:24.499Z,80.97
2023-05-16T05:33:51.011Z,80.72
2023-05-16T05:36:17.426Z,81.40
2023-05-16T05:38:43.870Z,81.37
2023-05-16T05:41:11.773Z,81.23
2023-05-16T05:43:38.461Z,81.35
2023-05-16T05:46:05.236Z,81.08
2023-05-16T05:48:32.407Z,81.20
2023-05-16T05:50:59.175Z,80.99
2023-05-16T05:53:25.720Z,81.07
2023-05-16T05:55:52.173Z,80.89
2023-05-16T05:58:18.734Z,80.82
2023-05-16T06:00:45.305Z,80.58
2023-05-16T06:03:11.783Z,81.06
2023-05-16T06:05:38.424Z,81.21
2023-05-16T06:08:04.930Z,81.06
2023-05-16T06:10:31.458Z,80.96
2023-05-16T06:12:57.841Z,80.65
2023-05-16T06:15:25.682Z,80.21
2023-05-16T06:17:52.665Z,80.64
2023-05-16T06:20:19.380Z,80.64
2023-05-16T06:22:45.842Z,80.04
2023-05-16T06:25:12.462Z,80.08
2023-05-16T06:27:38.901Z,80.07
2023-05-16T06:30:06.192Z,79.96
2023-05-16T06:32:32.694Z,80.07
2023-05-16T06:34:59.140Z,79.75
2023-05-16T06:37:26.219Z,79.60
2023-05-16T06:39:52.800Z,79.78
2023-05-16T06:42:20.433Z,79.85
2023-05-16T06:44:47.367Z,79.52
2023-05-16T06:47:13.979Z,79.70
2023-05-16T06:49:40.526Z,79.64
2023-05-16T06:52:07.109Z,79.72
2023-05-16T06:54:33.656Z,79.50
2023-05-16T06:57:00.131Z,79.21
2023-05-16T06:59:28.130Z,79.93
2023-05-16T07:01:54.910Z,80.10
2023-05-16T07:04:21.738Z,80.38
2023-05-16T07:06:48.309Z,80.55
2023-05-16T07:09:14.750Z,80.89
2023-05-16T07:11:41.218Z,80.14
2023-05-16T07:14:07.946Z,79.38
2023-05-16T07:16:34.498Z,79.20
2023-05-16T07:19:01.223Z,79.82
2023-05-16T07:21:27.928Z,80.34
2023-05-16T07:23:54.395Z,79.86
2023-05-16T07:26:23.083Z,79.99
2023-05-16T07:28:50.427Z,79.62
2023-05-16T07:31:17.273Z,78.97
2023-05-16T07:33:44.634Z,79.00
2023-05-16T07:36:16.714Z,81.20
2023-05-16T07:38:44.446Z,81.84
2023-05-16T07:41:11.014Z,83.01
2023-05-16T07:43:37.577Z,84.35
2023-05-16T07:46:05.458Z,84.54
2023-05-16T07:48:31.938Z,86.06
2023-05-16T07:50:58.433Z,85.31
2023-05-16T07:53:24.886Z,85.45
2023-05-16T07:55:51.507Z,86.15
2023-05-16T07:58:18.013Z,86.43
2023-05-16T08:00:44.473Z,86.17
2023-05-16T08:03:10.995Z,86.35
2023-05-16T08:05:37.783Z,86.78
2023-05-16T08:08:04.422Z,87.28
2023-05-16T08:10:31.084Z,86.51
2023-05-16T08:12:57.592Z,87.00
2023-05-16T08:15:25.790Z,87.33
2023-05-16T08:17:54.836Z,86.16
2023-05-16T08:20:21.344Z,86.21
2023-05-16T08:22:47.914Z,84.94
2023-05-16T08:25:14.369Z,85.23
2023-05-16T08:27:41.079Z,84.88
2023-05-16T08:30:08.209Z,85.23
2023-05-16T08:32:34.804Z,84.79
2023-05-16T08:35:01.404Z,85.06
2023-05-16T08:37:27.872Z,86.00
2023-05-16T08:39:54.334Z,86.46
2023-05-16T08:42:20.891Z,86.87
2023-05-16T08:44:47.372Z,85.43
2023-05-16T08:47:18.916Z,86.08
2023-05-16T08:49:48.026Z,84.32
2023-05-16T08:52:18.138Z,85.53
2023-05-16T08:54:50.405Z,85.54
2023-05-16T08:57:22.002Z,82.72
2023-05-16T08:59:48.831Z,85.03
2023-05-16T09:02:15.643Z,85.96
2023-05-16T09:04:43.227Z,85.33
2023-05-16T09:07:09.891Z,85.06
2023-05-16T09:09:36.383Z,85.00
2023-05-16T09:12:02.901Z,83.69
2023-05-16T09:14:29.470Z,85.07
2023-05-16T09:17:06.918Z,83.48
2023-05-16T09:19:41.457Z,84.35
2023-05-16T09:22:15.416Z,82.56
2023-05-16T09:24:43.484Z,83.51
2023-05-16T09:27:11.341Z,82.71
2023-05-16T09:29:41.178Z,80.26
2023-05-16T09:32:12.922Z,80.98
2023-05-16T09:34:49.426Z,80.93
2023-05-16T09:37:16.294Z,80.71
2023-05-16T09:39:49.704Z,80.93
2023-05-16T09:42:17.604Z,79.88
2023-05-16T09:44:48.757Z,76.14
2023-05-16T09:47:19.272Z,78.51
2023-05-16T09:49:46.666Z,76.99
2023-05-16T09:52:13.474Z,76.21
2023-05-16T09:54:40.190Z,76.16
2023-05-16T09:57:07.355Z,75.37
2023-05-16T09:59:38.451Z,76.54
2023-05-16T10:02:07.167Z,76.52
2023-05-16T10:04:38.171Z,76.67
2023-05-16T10:07:05.643Z,74.89
2023-05-16T10:09:33.329Z,75.88
2023-05-16T10:12:04.811Z,75.73
2023-05-16T10:14:37.815Z,77.60
2023-05-16T10:17:06.955Z,77.63
2023-05-16T10:19:36.506Z,77.69
2023-05-16T10:22:05.975Z,75.31
2023-05-16T10:24:48.300Z,77.04
2023-05-16T10:27:16.898Z,75.36
2023-05-16T10:29:54.264Z,76.01
2023-05-16T10:32:23.739Z,76.07
2023-05-16T10:34:51.025Z,74.83
2023-05-16T10:37:17.584Z,74.22
2023-05-16T10:39:44.328Z,74.68
2023-05-16T10:42:11.712Z,75.08
2023-05-16T10:44:39.074Z,74.30
2023-05-16T10:47:05.788Z,75.06
2023-05-16T10:49:32.354Z,74.51
2023-05-16T10:52:07.935Z,74.68
2023-05-16T10:54:52.294Z,76.01
2023-05-16T10:57:22.739Z,75.12
2023-05-16T10:59:50.696Z,75.78
2023-05-16T11:02:25.958Z,73.84
2023-05-16T11:04:53.314Z,74.10
2023-05-16T11:07:21.464Z,74.20
2023-05-16T11:10:10.756Z,73.45
2023-05-16T11:12:50.034Z,71.67
2023-05-16T11:15:29.260Z,72.22
2023-05-16T11:18:10.298Z,70.73
2023-05-16T11:20:38.534Z,71.89
2023-05-16T11:23:17.051Z,70.59
2023-05-16T11:25:46.124Z,70.38
2023-05-16T11:28:16.642Z,71.20
2023-05-16T11:30:44.672Z,71.20
2023-05-16T11:33:12.874Z,70.59
2023-05-16T11:35:39.489Z,71.27
2023-05-16T11:38:05.948Z,69.23
2023-05-16T11:40:32.402Z,69.52
2023-05-16T11:43:00.886Z,70.56
2023-05-16T11:45:27.626Z,70.05
2023-05-16T11:47:54.352Z,67.92
2023-05-16T11:50:26.129Z,68.06
2023-05-16T11:52:54.092Z,67.87
2023-05-16T11:55:40.477Z,67.90
2023-05-16T11:58:08.169Z,67.16
2023-05-16T12:00:34.991Z,67.57
2023-05-16T12:03:05.071Z,67.86
2023-05-16T12:05:33.961Z,68.38
2023-05-16T12:08:02.540Z,68.06
2023-05-16T12:10:31.659Z,68.12
2023-05-16T12:12:58.293Z,67.63
2023-05-16T12:15:24.910Z,65.67
2023-05-16T12:17:51.966Z,64.61
2023-05-16T12:20:18.666Z,64.36
2023-05-16T12:22:46.159Z,65.27
2023-05-16T12:25:46.214Z,63.67
2023-05-16T12:28:14.168Z,62.35
2023-05-16T12:30:42.812Z,63.48
2023-05-16T12:33:11.433Z,62.90
2023-05-16T12:35:40.824Z,60.59
2023-05-16T12:38:08.901Z,59.73
2023-05-16T12:40:40.155Z,58.84
2023-05-16T12:43:20.326Z,56.26
2023-05-16T12:45:54.816Z,57.46
2023-05-16T12:48:22.152Z,56.14
2023-05-16T12:50:49.332Z,54.38
2023-05-16T12:53:17.118Z,54.25
2023-05-16T12:55:44.410Z,53.49
2023-05-16T12:58:11.664Z,53.39
2023-05-16T13:00:39.009Z,53.49
2023-05-16T13:03:06.378Z,54.82
2023-05-16T13:05:33.182Z,52.92
2023-05-16T13:08:00.114Z,54.67
2023-05-16T13:10:26.917Z,53.67
2023-05-16T13:12:53.751Z,54.34
2023-05-16T13:15:20.213Z,54.58
2023-05-16T13:17:48.449Z,54.59
2023-05-16T13:20:15.577Z,55.13
2023-05-16T13:22:43.535Z,55.52
2023-05-16T13:25:10.611Z,55.36
2023-05-16T13:27:37.155Z,52.92
2023-05-16T13:30:07.318Z,53.49
2023-05-16T13:32:33.919Z,52.19
2023-05-16T13:35:00.462Z,53.98
2023-05-16T13:37:27.211Z,51.56
2023-05-16T13:39:54.748Z,53.22
2023-05-16T13:42:21.548Z,50.34
2023-05-16T13:44:48.106Z,50.60
2023-05-16T13:47:14.590Z,51.03
2023-05-16T13:49:41.072Z,49.17
2023-05-16T13:52:08.096Z,49.24
2023-05-16T13:54:34.654Z,51.48
2023-05-16T13:57:02.079Z,51.21
2023-05-16T13:59:48.813Z,47.43
2023-05-16T14:02:15.500Z,45.23
2023-05-16T14:04:41.955Z,45.29
2023-05-16T14:07:08.411Z,45.58
2023-05-16T14:09:37.135Z,47.02
2023-05-16T14:12:04.074Z,44.89
2023-05-16T14:14:30.592Z,46.41
2023-05-16T14:16:57.100Z,43.88
2023-05-16T14:19:23.647Z,44.67
2023-05-16T14:21:50.174Z,43.54
2023-05-16T14:24:16.757Z,44.54
2023-05-16T14:26:43.252Z,44.21
2023-05-16T14:29:09.754Z,45.26
2023-05-16T14:31:36.581Z,44.73
2023-05-16T14:34:03.235Z,45.51
2023-05-16T14:36:29.930Z,44.50
2023-05-16T14:38:56.496Z,44.44
2023-05-16T14:41:23.000Z,44.06
2023-05-16T14:43:49.552Z,44.74
2023-05-16T14:46:16.049Z,43.17
2023-05-16T14:48:42.507Z,43.60
2023-05-16T14:51:09.010Z,42.74
2023-05-16T14:53:35.454Z,43.88
2023-05-16T14:56:03.674Z,43.12
2023-05-16T14:58:30.767Z,43.44
2023-05-16T15:00:57.355Z,44.97
2023-05-16T15:03:24.067Z,42.26
2023-05-16T15:05:50.656Z,42.63
2023-05-16T15:08:17.380Z,43.61
2023-05-16T15:10:43.835Z,43.56
2023-05-16T15:13:10.686Z,42.59
2023-05-16T15:15:38.708Z,42.41
2023-05-16T15:18:05.508Z,41.96
2023-05-16T15:20:32.069Z,43.28
2023-05-16T15:22:58.553Z,43.60
2023-05-16T15:25:25.020Z,43.20
2023-05-16T15:27:51.626Z,43.13
2023-05-16T15:30:18.190Z,44.69
2023-05-16T15:32:44.695Z,44.19
2023-05-16T15:35:11.294Z,42.25
2023-05-16T15:37:38.091Z,42.13
2023-05-16T15:40:05.736Z,41.72
2023-05-16T15:42:32.308Z,41.15
2023-05-16T15:44:58.854Z,41.10
2023-05-16T15:47:26.036Z,41.05
2023-05-16T15:49:52.819Z,40.96
2023-05-16T15:52:20.611Z,42.50
2023-05-16T15:54:48.878Z,40.07
2023-05-16T15:57:15.301Z,41.18
2023-05-16T15:59:41.804Z,40.98
2023-05-16T16:02:08.357Z,39.53
2023-05-16T16:04:35.039Z,40.09
2023-05-16T16:07:01.530Z,41.48
2023-05-16T16:09:28.014Z,41.13
2023-05-16T16:11:56.448Z,42.34
2023-05-16T16:14:24.354Z,42.25
2023-05-16T16:16:51.401Z,43.45
2023-05-16T16:19:18.018Z,41.38
2023-05-16T16:21:44.590Z,41.49
2023-05-16T16:24:11.092Z,41.92
2023-05-16T16:26:37.893Z,42.62
2023-05-16T16:29:05.674Z,40.51
2023-05-16T16:31:32.448Z,39.90
2023-05-16T16:33:58.964Z,40.53
2023-05-16T16:36:25.513Z,40.40
2023-05-16T16:38:52.011Z,40.30
2023-05-16T16:41:18.503Z,41.56
2023-05-16T16:43:45.032Z,42.14
2023-05-16T16:46:11.759Z,42.01
2023-05-16T16:48:38.346Z,40.81
2023-05-16T16:51:05.048Z,40.75
2023-05-16T16:53:32.342Z,40.57
2023-05-16T16:55:58.841Z,40.36
2023-05-16T16:58:25.446Z,40.78
2023-05-16T17:00:51.966Z,42.09
2023-05-16T17:03:18.697Z,41.58
2023-05-16T17:05:45.257Z,41.01
2023-05-16T17:08:12.127Z,40.62
2023-05-16T17:10:39.139Z,39.96
2023-05-16T17:13:10.085Z,41.30
2023-05-16T17:15:37.461Z,39.84
2023-05-16T17:18:07.153Z,40.88
2023-05-16T17:20:37.118Z,39.68
2023-05-16T17:23:03.721Z,40.56
2023-05-16T17:25:30.403Z,40.98
2023-05-16T17:27:57.137Z,40.05
2023-05-16T17:30:23.916Z,40.61
2023-05-16T17:32:50.416Z,40.06
2023-05-16T17:35:20.113Z,40.82
2023-05-16T17:37:47.578Z,40.77
2023-05-16T17:40:16.786Z,41.14
2023-05-16T17:42:44.544Z,41.77
2023-05-16T17:45:12.493Z,42.25
2023-05-16T17:47:39.443Z,42.34
2023-05-16T17:50:09.554Z,42.54
2023-05-16T17:52:39.257Z,41.34
2023-05-16T17:55:06.460Z,41.83
2023-05-16T17:57:33.841Z,41.69
2023-05-16T18:00:00.684Z,42.62
2023-05-16T18:02:27.241Z,42.95
2023-05-16T18:04:53.708Z,43.63
2023-05-16T18:07:20.135Z,43.97
2023-05-16T18:09:46.607Z,43.76
2023-05-16T18:12:13.335Z,44.57
2023-05-16T18:14:40.018Z,45.63
2023-05-16T18:17:06.543Z,45.44
2023-05-16T18:19:33.126Z,45.35
2023-05-16T18:21:59.908Z,44.25
2023-05-16T18:24:26.423Z,44.37
2023-05-16T18:26:52.932Z,44.36
2023-05-16T18:29:19.497Z,44.62
2023-05-16T18:31:46.289Z,45.15
2023-05-16T18:34:12.886Z,45.39
2023-05-16T18:36:39.328Z,46.04
2023-05-16T18:39:05.850Z,46.52
2023-05-16T18:41:32.279Z,46.75
2023-05-16T18:43:58.742Z,46.53
2023-05-16T18:46:25.257Z,47.04
2023-05-16T18:48:51.803Z,46.91
2023-05-16T18:51:18.351Z,46.80
2023-05-16T18:53:47.557Z,47.44
2023-05-16T18:56:13.948Z,47.16
2023-05-16T18:58:40.518Z,48.13
2023-05-16T19:01:06.976Z,48.33
2023-05-16T19:03:33.692Z,49.25
2023-05-16T19:06:00.286Z,49.40
2023-05-16T19:08:31.274Z,49.78
2023-05-16T19:11:03.364Z,49.41
2023-05-16T19:13:32.291Z,50.45
2023-05-16T19:15:58.725Z,50.68
2023-05-16T19:18:25.283Z,50.96
2023-05-16T19:20:51.921Z,50.91
2023-05-16T19:23:18.639Z,51.54
2023-05-16T19:25:49.017Z,52.01
2023-05-16T19:28:16.421Z,53.02
2023-05-16T19:30:42.977Z,52.27
2023-05-16T19:33:10.114Z,52.45
2023-05-16T19:35:36.657Z,53.08
2023-05-16T19:38:03.179Z,53.72
2023-05-16T19:40:30.064Z,53.79
2023-05-16T19:42:56.564Z,54.19
2023-05-16T19:45:23.136Z,54.86
2023-05-16T19:47:49.725Z,54.96
2023-05-16T19:50:16.417Z,55.21
2023-05-16T19:52:42.869Z,55.92
2023-05-16T19:55:10.399Z,55.51
2023-05-16T19:57:37.394Z,55.89
2023-05-16T20:00:05.273Z,56.51
2023-05-16T20:02:39.260Z,56.67
2023-05-16T20:05:06.507Z,56.99
2023-05-16T20:07:32.994Z,57.47
2023-05-16T20:09:59.540Z,57.88
2023-05-16T20:12:26.196Z,58.50
2023-05-16T20:14:52.694Z,58.52
2023-05-16T20:17:19.176Z,58.42
2023-05-16T20:19:46.568Z,58.86
2023-05-16T20:22:13.088Z,58.96
2023-05-16T20:24:39.659Z,59.11
2023-05-16T20:27:06.147Z,59.71
2023-05-16T20:29:33.742Z,59.76
2023-05-16T20:32:00.676Z,60.03
2023-05-16T20:34:27.877Z,60.32
2023-05-16T20:36:54.368Z,60.20
2023-05-16T20:39:20.832Z,60.38
2023-05-16T20:41:47.537Z,59.93
2023-05-16T20:44:15.221Z,60.06
2023-05-16T20:46:43.038Z,59.35
2023-05-16T20:49:09.537Z,59.19
2023-05-16T20:51:36.234Z,59.16
2023-05-16T20:54:02.689Z,59.26
2023-05-16T20:56:29.200Z,58.81
2023-05-16T20:58:55.649Z,59.07
2023-05-16T21:01:22.280Z,58.99
2023-05-16T21:03:48.802Z,58.44
2023-05-16T21:06:15.275Z,58.17
2023-05-16T21:08:41.841Z,58.25
2023-05-16T21:11:09.372Z,58.65
2023-05-16T21:13:35.888Z,59.14
2023-05-16T21:16:02.389Z,59.29
2023-05-16T21:18:28.972Z,59.53
2023-05-16T21:20:55.589Z,59.65
2023-05-16T21:23:22.143Z,59.53
2023-05-16T21:25:48.582Z,59.77
2023-05-16T21:28:15.068Z,59.64
2023-05-16T21:30:41.545Z,59.77
2023-05-16T21:33:08.064Z,60.15
2023-05-16T21:35:34.685Z,60.26
2023-05-16T21:38:01.178Z,60.40
2023-05-16T21:40:28.721Z,60.30
2023-05-16T21:42:55.283Z,60.04
2023-05-16T21:45:21.784Z,60.14
2023-05-16T21:47:48.559Z,60.36
2023-05-16T21:50:15.339Z,60.37
2023-05-16T21:52:42.007Z,60.29
2023-05-16T21:55:08.835Z,60.32
2023-05-16T21:57:35.515Z,60.68
2023-05-16T22:00:06.781Z,61.38
2023-05-16T22:02:34.540Z,61.33
2023-05-16T22:05:01.328Z,61.46
2023-05-16T22:07:31.491Z,61.73
2023-05-16T22:09:58.908Z,61.79
2023-05-16T22:12:26.393Z,62.09
2023-05-16T22:14:52.956Z,62.31
2023-05-16T22:17:20.123Z,62.38
2023-05-16T22:19:46.901Z,62.19
2023-05-16T22:22:13.544Z,61.84
2023-05-16T22:24:40.044Z,61.76
2023-05-16T22:27:06.799Z,61.76
2023-05-16T22:29:37.927Z,62.03
2023-05-16T22:32:08.699Z,62.30
2023-05-16T22:34:41.702Z,62.73
2023-05-16T22:37:09.142Z,62.78
2023-05-16T22:39:35.948Z,63.07
2023-05-16T22:42:03.495Z,62.96
2023-05-16T22:44:30.305Z,63.41
2023-05-16T22:46:56.882Z,63.22
2023-05-16T22:49:23.349Z,63.31
2023-05-16T22:51:49.890Z,63.35
2023-05-16T22:54:16.627Z,63.46
2023-05-16T22:56:43.320Z,63.72
2023-05-16T22:59:09.778Z,64.09
2023-05-16T23:01:37.312Z,64.04
2023-05-16T23:04:03.953Z,64.20
2023-05-16T23:06:32.294Z,64.03
2023-05-16T23:09:00.312Z,64.49
2023-05-16T23:11:26.848Z,64.14
2023-05-16T23:13:53.494Z,64.50
2023-05-16T23:16:20.037Z,64.58
2023-05-16T23:18:46.781Z,64.69
2023-05-16T23:21:13.409Z,64.95
2023-05-16T23:23:40.185Z,65.62
2023-05-16T23:26:06.735Z,65.69
2023-05-16T23:28:33.197Z,66.19
2023-05-16T23:30:59.624Z,66.30
2023-05-16T23:33:26.178Z,66.72
2023-05-16T23:35:52.637Z,66.89
2023-05-16T23:38:19.097Z,67.11
2023-05-16T23:40:45.816Z,67.34
2023-05-16T23:43:12.237Z,67.38
2023-05-16T23:45:38.710Z,67.65
2023-05-16T23:48:05.666Z,67.52
2023-05-16T23:50:32.243Z,67.88
2023-05-16T23:52:58.702Z,68.23
2023-05-16T23:55:25.303Z,68.16
2023-05-16T23:57:51.790Z,68.17
